sensor_id;sensor_type;location;lat;lon;timestamp;P1;durP1;ratioP1;P2;durP2;ratioP2
21810;SDS011;11067;48.788;9.208;2023-05-07T00:00:18;6.97;;;4.50;;
21810;SDS011;11067;48.788;9.208;2023-05-07T00:02:44;7.65;;;4.82;;
21810;SDS011;11067;48.788;9.208;2023-05-07T00:05:10;6.87;;;4.63;;
21810;SDS011;11067;48.788;9.208;2023-05-07T00:07:36;7.17;;;4.83;;
21810;SDS011;11067;48.788;9.208;2023-05-07T00:10:02;7.35;;;4.70;;
21810;SDS011;11067;48.788;9.208;2023-05-07T00:12:28;7.63;;;4.82;;
21810;SDS011;11067;48.788;9.208;2023-05-07T00:14:56;9.02;;;5.43;;
21810;SDS011;11067;48.788;9.208;2023-05-07T00:17:22;7.32;;;5.03;;
21810;SDS011;11067;48.788;9.208;2023-05-07T00:19:48;9.48;;;4.85;;
21810;SDS011;11067;48.788;9.208;2023-05-07T00:22:13;7.05;;;4.47;;
21810;SDS011;11067;48.788;9.208;2023-05-07T00:24:39;7.22;;;4.80;;
21810;SDS011;11067;48.788;9.208;2023-05-07T00:27:05;6.30;;;4.60;;
21810;SDS011;11067;48.788;9.208;2023-05-07T00:29:30;9.32;;;4.43;;
21810;SDS011;11067;48.788;9.208;2023-05-07T00:31:56;9.32;;;4.65;;
21810;SDS011;11067;48.788;9.208;2023-05-07T00:34:21;7.30;;;4.60;;
21810;SDS011;11067;48.788;9.208;2023-05-07T00:36:47;7.00;;;4.30;;
21810;SDS011;11067;48.788;9.208;2023-05-07T00:39:13;8.90;;;4.70;;
21810;SDS011;11067;48.788;9.208;2023-05-07T00:41:38;10.05;;;4.38;;
21810;SDS011;11067;48.788;9.208;2023-05-07T00:44:04;8.17;;;4.30;;
21810;SDS011;11067;48.788;9.208;2023-05-07T00:46:30;7.70;;;4.50;;
21810;SDS011;11067;48.788;9.208;2023-05-07T00:48:56;8.50;;;4.55;;
21810;SDS011;11067;48.788;9.208;2023-05-07T00:51:23;6.32;;;5.25;;
21810;SDS011;11067;48.788;9.208;2023-05-07T00:53:50;8.38;;;6.20;;
21810;SDS011;11067;48.788;9.208;2023-05-07T00:56:15;7.35;;;6.22;;
21810;SDS011;11067;48.788;9.208;2023-05-07T00:58:41;7.88;;;5.40;;
21810;SDS011;11067;48.788;9.208;2023-05-07T01:01:07;9.90;;;6.35;;
21810;SDS011;11067;48.788;9.208;2023-05-07T01:03:33;6.78;;;4.55;;
21810;SDS011;11067;48.788;9.208;2023-05-07T01:05:58;8.80;;;4.37;;
21810;SDS011;11067;48.788;9.208;2023-05-07T01:08:25;9.17;;;4.00;;
21810;SDS011;11067;48.788;9.208;2023-05-07T01:10:53;5.63;;;4.28;;
21810;SDS011;11067;48.788;9.208;2023-05-07T01:13:19;6.38;;;4.28;;
21810;SDS011;11067;48.788;9.208;2023-05-07T01:15:45;5.30;;;4.13;;
21810;SDS011;11067;48.788;9.208;2023-05-07T01:18:11;8.73;;;4.63;;
21810;SDS011;11067;48.788;9.208;2023-05-07T01:20:37;9.00;;;4.37;;
21810;SDS011;11067;48.788;9.208;2023-05-07T01:23:02;5.13;;;4.20;;
21810;SDS011;11067;48.788;9.208;2023-05-07T01:25:28;6.28;;;3.60;;
21810;SDS011;11067;48.788;9.208;2023-05-07T01:27:55;6.13;;;4.00;;
21810;SDS011;11067;48.788;9.208;2023-05-07T01:30:21;5.90;;;4.20;;
21810;SDS011;11067;48.788;9.208;2023-05-07T01:33:01;6.75;;;4.25;;
21810;SDS011;11067;48.788;9.208;2023-05-07T01:35:36;6.07;;;4.17;;
21810;SDS011;11067;48.788;9.208;2023-05-07T01:38:05;7.80;;;4.22;;
21810;SDS011;11067;48.788;9.208;2023-05-07T01:40:31;7.63;;;4.15;;
21810;SDS011;11067;48.788;9.208;2023-05-07T01:42:57;5.93;;;3.90;;
21810;SDS011;11067;48.788;9.208;2023-05-07T01:45:23;5.88;;;3.90;;
21810;SDS011;11067;48.788;9.208;2023-05-07T01:47:49;6.63;;;3.92;;
21810;SDS011;11067;48.788;9.208;2023-05-07T01:50:16;5.47;;;3.73;;
21810;SDS011;11067;48.788;9.208;2023-05-07T01:52:43;5.50;;;4.05;;
21810;SDS011;11067;48.788;9.208;2023-05-07T01:55:09;6.03;;;4.40;;
21810;SDS011;11067;48.788;9.208;2023-05-07T01:57:34;6.45;;;4.32;;
21810;SDS011;11067;48.788;9.208;2023-05-07T02:00:00;5.65;;;4.20;;
21810;SDS011;11067;48.788;9.208;2023-05-07T02:02:27;8.35;;;4.05;;
21810;SDS011;11067;48.788;9.208;2023-05-07T02:04:53;7.70;;;4.13;;
21810;SDS011;11067;48.788;9.208;2023-05-07T02:07:18;5.50;;;4.03;;
21810;SDS011;11067;48.788;9.208;2023-05-07T02:09:44;7.10;;;4.20;;
21810;SDS011;11067;48.788;9.208;2023-05-07T02:12:10;9.07;;;4.28;;
21810;SDS011;11067;48.788;9.208;2023-05-07T02:14:35;6.57;;;4.33;;
21810;SDS011;11067;48.788;9.208;2023-05-07T02:17:01;11.00;;;4.50;;
21810;SDS011;11067;48.788;9.208;2023-05-07T02:19:26;5.32;;;4.25;;
21810;SDS011;11067;48.788;9.208;2023-05-07T02:21:52;6.00;;;3.83;;
21810;SDS011;11067;48.788;9.208;2023-05-07T02:24:18;6.85;;;4.03;;
21810;SDS011;11067;48.788;9.208;2023-05-07T02:26:43;5.28;;;3.40;;
21810;SDS011;11067;48.788;9.208;2023-05-07T02:29:09;7.47;;;4.60;;
21810;SDS011;11067;48.788;9.208;2023-05-07T02:31:34;5.90;;;4.50;;
21810;SDS011;11067;48.788;9.208;2023-05-07T02:34:00;8.33;;;4.27;;
21810;SDS011;11067;48.788;9.208;2023-05-07T02:36:25;6.50;;;3.87;;
21810;SDS011;11067;48.788;9.208;2023-05-07T02:38:51;4.97;;;3.70;;
21810;SDS011;11067;48.788;9.208;2023-05-07T02:41:17;8.00;;;4.60;;
21810;SDS011;11067;48.788;9.208;2023-05-07T02:43:42;8.55;;;3.80;;
21810;SDS011;11067;48.788;9.208;2023-05-07T02:46:08;6.67;;;4.27;;
21810;SDS011;11067;48.788;9.208;2023-05-07T02:48:34;6.15;;;4.22;;
21810;SDS011;11067;48.788;9.208;2023-05-07T02:51:00;7.20;;;4.23;;
21810;SDS011;11067;48.788;9.208;2023-05-07T02:53:26;7.03;;;4.00;;
21810;SDS011;11067;48.788;9.208;2023-05-07T02:55:56;5.53;;;4.05;;
21810;SDS011;11067;48.788;9.208;2023-05-07T02:58:23;6.40;;;4.10;;
21810;SDS011;11067;48.788;9.208;2023-05-07T03:00:48;5.90;;;4.03;;
21810;SDS011;11067;48.788;9.208;2023-05-07T03:03:14;5.57;;;4.20;;
21810;SDS011;11067;48.788;9.208;2023-05-07T03:05:40;4.67;;;3.73;;
21810;SDS011;11067;48.788;9.208;2023-05-07T03:08:06;4.75;;;3.90;;
21810;SDS011;11067;48.788;9.208;2023-05-07T03:10:32;9.65;;;4.20;;
21810;SDS011;11067;48.788;9.208;2023-05-07T03:12:57;6.60;;;4.07;;
21810;SDS011;11067;48.788;9.208;2023-05-07T03:15:23;5.45;;;3.97;;
21810;SDS011;11067;48.788;9.208;2023-05-07T03:17:48;5.23;;;3.93;;
21810;SDS011;11067;48.788;9.208;2023-05-07T03:20:14;7.95;;;5.00;;
21810;SDS011;11067;48.788;9.208;2023-05-07T03:22:39;7.72;;;4.20;;
21810;SDS011;11067;48.788;9.208;2023-05-07T03:25:05;6.10;;;4.07;;
21810;SDS011;11067;48.788;9.208;2023-05-07T03:27:31;5.88;;;4.03;;
21810;SDS011;11067;48.788;9.208;2023-05-07T03:29:57;5.73;;;4.30;;
21810;SDS011;11067;48.788;9.208;2023-05-07T03:32:22;8.33;;;4.43;;
21810;SDS011;11067;48.788;9.208;2023-05-07T03:34:48;6.03;;;4.30;;
21810;SDS011;11067;48.788;9.208;2023-05-07T03:37:14;6.10;;;4.13;;
21810;SDS011;11067;48.788;9.208;2023-05-07T03:39:39;5.63;;;3.80;;
21810;SDS011;11067;48.788;9.208;2023-05-07T03:42:05;5.82;;;4.45;;
21810;SDS011;11067;48.788;9.208;2023-05-07T03:44:30;6.15;;;4.20;;
21810;SDS011;11067;48.788;9.208;2023-05-07T03:46:56;7.13;;;4.07;;
21810;SDS011;11067;48.788;9.208;2023-05-07T03:49:21;6.37;;;4.27;;
21810;SDS011;11067;48.788;9.208;2023-05-07T03:51:47;7.72;;;5.18;;
21810;SDS011;11067;48.788;9.208;2023-05-07T03:54:12;6.30;;;4.27;;
21810;SDS011;11067;48.788;9.208;2023-05-07T03:56:38;6.03;;;4.70;;
21810;SDS011;11067;48.788;9.208;2023-05-07T03:59:03;8.40;;;4.60;;
21810;SDS011;11067;48.788;9.208;2023-05-07T04:01:29;10.53;;;4.70;;
21810;SDS011;11067;48.788;9.208;2023-05-07T04:03:55;9.33;;;4.53;;
21810;SDS011;11067;48.788;9.208;2023-05-07T04:06:20;7.00;;;4.43;;
21810;SDS011;11067;48.788;9.208;2023-05-07T04:08:46;9.45;;;4.50;;
21810;SDS011;11067;48.788;9.208;2023-05-07T04:11:13;6.45;;;4.20;;
21810;SDS011;11067;48.788;9.208;2023-05-07T04:13:39;5.82;;;4.20;;
21810;SDS011;11067;48.788;9.208;2023-05-07T04:16:05;7.60;;;4.40;;
21810;SDS011;11067;48.788;9.208;2023-05-07T04:18:31;6.53;;;4.40;;
21810;SDS011;11067;48.788;9.208;2023-05-07T04:20:56;7.72;;;4.80;;
21810;SDS011;11067;48.788;9.208;2023-05-07T04:23:22;8.00;;;4.50;;
21810;SDS011;11067;48.788;9.208;2023-05-07T04:25:47;6.20;;;4.33;;
21810;SDS011;11067;48.788;9.208;2023-05-07T04:28:13;7.50;;;4.93;;
21810;SDS011;11067;48.788;9.208;2023-05-07T04:30:39;7.53;;;4.00;;
21810;SDS011;11067;48.788;9.208;2023-05-07T04:33:04;6.60;;;4.17;;
21810;SDS011;11067;48.788;9.208;2023-05-07T04:35:31;8.15;;;4.60;;
21810;SDS011;11067;48.788;9.208;2023-05-07T04:37:57;4.87;;;4.13;;
21810;SDS011;11067;48.788;9.208;2023-05-07T04:40:22;5.43;;;4.20;;
21810;SDS011;11067;48.788;9.208;2023-05-07T04:42:48;5.50;;;4.18;;
21810;SDS011;11067;48.788;9.208;2023-05-07T04:45:13;6.50;;;4.50;;
21810;SDS011;11067;48.788;9.208;2023-05-07T04:47:39;5.63;;;4.22;;
21810;SDS011;11067;48.788;9.208;2023-05-07T04:50:06;6.68;;;4.45;;
21810;SDS011;11067;48.788;9.208;2023-05-07T04:52:33;5.53;;;4.22;;
21810;SDS011;11067;48.788;9.208;2023-05-07T04:54:59;7.85;;;4.72;;
21810;SDS011;11067;48.788;9.208;2023-05-07T04:57:25;6.87;;;4.13;;
21810;SDS011;11067;48.788;9.208;2023-05-07T04:59:51;7.47;;;4.93;;
21810;SDS011;11067;48.788;9.208;2023-05-07T05:02:17;6.87;;;4.50;;
21810;SDS011;11067;48.788;9.208;2023-05-07T05:04:42;6.50;;;4.43;;
21810;SDS011;11067;48.788;9.208;2023-05-07T05:07:08;7.88;;;4.43;;
21810;SDS011;11067;48.788;9.208;2023-05-07T05:09:33;7.30;;;4.83;;
21810;SDS011;11067;48.788;9.208;2023-05-07T05:11:59;7.90;;;4.80;;
21810;SDS011;11067;48.788;9.208;2023-05-07T05:14:25;7.72;;;4.43;;
21810;SDS011;11067;48.788;9.208;2023-05-07T05:16:50;11.27;;;5.63;;
21810;SDS011;11067;48.788;9.208;2023-05-07T05:19:16;7.23;;;4.90;;
21810;SDS011;11067;48.788;9.208;2023-05-07T05:21:41;6.38;;;4.72;;
21810;SDS011;11067;48.788;9.208;2023-05-07T05:24:07;6.35;;;4.80;;
21810;SDS011;11067;48.788;9.208;2023-05-07T05:26:33;9.07;;;4.57;;
21810;SDS011;11067;48.788;9.208;2023-05-07T05:28:59;5.78;;;4.53;;
21810;SDS011;11067;48.788;9.208;2023-05-07T05:31:24;6.27;;;4.50;;
21810;SDS011;11067;48.788;9.208;2023-05-07T05:33:50;6.93;;;4.37;;
21810;SDS011;11067;48.788;9.208;2023-05-07T05:36:16;7.05;;;4.50;;
21810;SDS011;11067;48.788;9.208;2023-05-07T05:38:42;4.53;;;3.92;;
21810;SDS011;11067;48.788;9.208;2023-05-07T05:41:07;7.13;;;4.33;;
21810;SDS011;11067;48.788;9.208;2023-05-07T05:43:33;6.55;;;4.00;;
21810;SDS011;11067;48.788;9.208;2023-05-07T05:45:58;4.70;;;3.70;;
21810;SDS011;11067;48.788;9.208;2023-05-07T05:48:25;6.20;;;3.63;;
21810;SDS011;11067;48.788;9.208;2023-05-07T05:50:50;4.27;;;3.70;;
21810;SDS011;11067;48.788;9.208;2023-05-07T05:53:16;4.45;;;3.78;;
21810;SDS011;11067;48.788;9.208;2023-05-07T05:55:42;6.20;;;3.70;;
21810;SDS011;11067;48.788;9.208;2023-05-07T05:58:08;6.43;;;3.70;;
21810;SDS011;11067;48.788;9.208;2023-05-07T06:00:34;5.83;;;4.33;;
21810;SDS011;11067;48.788;9.208;2023-05-07T06:03:00;6.13;;;4.13;;
21810;SDS011;11067;48.788;9.208;2023-05-07T06:05:25;7.60;;;3.33;;
21810;SDS011;11067;48.788;9.208;2023-05-07T06:07:51;5.77;;;3.70;;
21810;SDS011;11067;48.788;9.208;2023-05-07T06:10:16;4.72;;;3.60;;
21810;SDS011;11067;48.788;9.208;2023-05-07T06:12:42;5.07;;;4.03;;
21810;SDS011;11067;48.788;9.208;2023-05-07T06:15:08;6.15;;;4.53;;
21810;SDS011;11067;48.788;9.208;2023-05-07T06:17:34;5.38;;;4.20;;
21810;SDS011;11067;48.788;9.208;2023-05-07T06:20:00;5.60;;;4.30;;
21810;SDS011;11067;48.788;9.208;2023-05-07T06:22:25;7.38;;;4.57;;
21810;SDS011;11067;48.788;9.208;2023-05-07T06:24:51;6.93;;;4.30;;
21810;SDS011;11067;48.788;9.208;2023-05-07T06:27:16;5.47;;;4.43;;
21810;SDS011;11067;48.788;9.208;2023-05-07T06:29:42;7.13;;;4.90;;
21810;SDS011;11067;48.788;9.208;2023-05-07T06:32:08;6.43;;;4.70;;
21810;SDS011;11067;48.788;9.208;2023-05-07T06:34:34;8.10;;;4.90;;
21810;SDS011;11067;48.788;9.208;2023-05-07T06:37:00;7.18;;;5.03;;
21810;SDS011;11067;48.788;9.208;2023-05-07T06:39:26;7.72;;;4.60;;
21810;SDS011;11067;48.788;9.208;2023-05-07T06:41:51;6.73;;;4.93;;
21810;SDS011;11067;48.788;9.208;2023-05-07T06:44:17;5.68;;;4.88;;
21810;SDS011;11067;48.788;9.208;2023-05-07T06:46:42;12.93;;;5.43;;
21810;SDS011;11067;48.788;9.208;2023-05-07T06:49:08;6.50;;;4.60;;
21810;SDS011;11067;48.788;9.208;2023-05-07T06:51:33;7.10;;;5.25;;
21810;SDS011;11067;48.788;9.208;2023-05-07T06:53:59;7.17;;;4.77;;
21810;SDS011;11067;48.788;9.208;2023-05-07T06:56:25;6.93;;;5.03;;
21810;SDS011;11067;48.788;9.208;2023-05-07T06:58:50;6.13;;;4.78;;
21810;SDS011;11067;48.788;9.208;2023-05-07T07:01:16;7.97;;;4.87;;
21810;SDS011;11067;48.788;9.208;2023-05-07T07:03:41;8.63;;;5.40;;
21810;SDS011;11067;48.788;9.208;2023-05-07T07:06:07;6.83;;;4.27;;
21810;SDS011;11067;48.788;9.208;2023-05-07T07:08:32;7.90;;;4.70;;
21810;SDS011;11067;48.788;9.208;2023-05-07T07:10:59;6.45;;;4.30;;
21810;SDS011;11067;48.788;9.208;2023-05-07T07:13:24;7.00;;;4.70;;
21810;SDS011;11067;48.788;9.208;2023-05-07T07:15:51;7.23;;;4.67;;
21810;SDS011;11067;48.788;9.208;2023-05-07T07:18:16;7.95;;;4.85;;
21810;SDS011;11067;48.788;9.208;2023-05-07T07:20:42;8.50;;;5.03;;
21810;SDS011;11067;48.788;9.208;2023-05-07T07:23:09;6.75;;;4.88;;
21810;SDS011;11067;48.788;9.208;2023-05-07T07:25:35;7.10;;;4.43;;
21810;SDS011;11067;48.788;9.208;2023-05-07T07:28:00;6.55;;;4.15;;
21810;SDS011;11067;48.788;9.208;2023-05-07T07:30:26;5.17;;;3.93;;
21810;SDS011;11067;48.788;9.208;2023-05-07T07:32:52;5.35;;;4.30;;
21810;SDS011;11067;48.788;9.208;2023-05-07T07:35:17;4.40;;;3.58;;
21810;SDS011;11067;48.788;9.208;2023-05-07T07:37:43;10.20;;;3.83;;
21810;SDS011;11067;48.788;9.208;2023-05-07T07:40:09;4.43;;;3.60;;
21810;SDS011;11067;48.788;9.208;2023-05-07T07:42:35;4.73;;;3.40;;
21810;SDS011;11067;48.788;9.208;2023-05-07T07:45:00;5.07;;;3.60;;
21810;SDS011;11067;48.788;9.208;2023-05-07T07:47:26;4.70;;;3.50;;
21810;SDS011;11067;48.788;9.208;2023-05-07T07:49:51;4.13;;;3.33;;
21810;SDS011;11067;48.788;9.208;2023-05-07T07:52:17;3.25;;;2.90;;
21810;SDS011;11067;48.788;9.208;2023-05-07T07:54:44;4.63;;;3.10;;
21810;SDS011;11067;48.788;9.208;2023-05-07T07:57:09;4.10;;;3.20;;
21810;SDS011;11067;48.788;9.208;2023-05-07T07:59:35;3.72;;;2.80;;
21810;SDS011;11067;48.788;9.208;2023-05-07T08:02:00;4.37;;;3.00;;
21810;SDS011;11067;48.788;9.208;2023-05-07T08:04:26;3.53;;;2.63;;
21810;SDS011;11067;48.788;9.208;2023-05-07T08:06:52;4.43;;;2.60;;
21810;SDS011;11067;48.788;9.208;2023-05-07T08:09:19;5.00;;;2.85;;
21810;SDS011;11067;48.788;9.208;2023-05-07T08:11:44;4.30;;;3.00;;
21810;SDS011;11067;48.788;9.208;2023-05-07T08:14:10;4.50;;;3.03;;
21810;SDS011;11067;48.788;9.208;2023-05-07T08:16:36;4.32;;;2.75;;
21810;SDS011;11067;48.788;9.208;2023-05-07T08:19:02;4.57;;;2.90;;
21810;SDS011;11067;48.788;9.208;2023-05-07T08:21:28;3.50;;;2.72;;
21810;SDS011;11067;48.788;9.208;2023-05-07T08:23:53;3.93;;;3.03;;
21810;SDS011;11067;48.788;9.208;2023-05-07T08:26:19;3.80;;;2.83;;
21810;SDS011;11067;48.788;9.208;2023-05-07T08:28:45;4.10;;;3.00;;
21810;SDS011;11067;48.788;9.208;2023-05-07T08:31:10;3.37;;;3.00;;
21810;SDS011;11067;48.788;9.208;2023-05-07T08:33:36;4.15;;;2.80;;
21810;SDS011;11067;48.788;9.208;2023-05-07T08:36:03;3.40;;;2.90;;
21810;SDS011;11067;48.788;9.208;2023-05-07T08:38:29;3.90;;;2.80;;
21810;SDS011;11067;48.788;9.208;2023-05-07T08:40:55;4.55;;;2.72;;
21810;SDS011;11067;48.788;9.208;2023-05-07T08:43:21;4.40;;;2.70;;
21810;SDS011;11067;48.788;9.208;2023-05-07T08:45:48;4.30;;;2.90;;
21810;SDS011;11067;48.788;9.208;2023-05-07T08:48:15;3.15;;;2.83;;
21810;SDS011;11067;48.788;9.208;2023-05-07T08:50:41;5.18;;;2.72;;
21810;SDS011;11067;48.788;9.208;2023-05-07T08:53:07;4.13;;;2.83;;
21810;SDS011;11067;48.788;9.208;2023-05-07T08:55:33;3.85;;;2.55;;
21810;SDS011;11067;48.788;9.208;2023-05-07T08:57:59;4.30;;;2.90;;
21810;SDS011;11067;48.788;9.208;2023-05-07T09:00:24;4.72;;;2.95;;
21810;SDS011;11067;48.788;9.208;2023-05-07T09:02:50;4.60;;;3.00;;
21810;SDS011;11067;48.788;9.208;2023-05-07T09:05:17;4.80;;;2.70;;
21810;SDS011;11067;48.788;9.208;2023-05-07T09:07:42;5.72;;;2.70;;
21810;SDS011;11067;48.788;9.208;2023-05-07T09:10:08;3.40;;;2.70;;
21810;SDS011;11067;48.788;9.208;2023-05-07T09:12:34;4.22;;;2.90;;
21810;SDS011;11067;48.788;9.208;2023-05-07T09:15:03;4.55;;;2.60;;
21810;SDS011;11067;48.788;9.208;2023-05-07T09:17:29;3.10;;;2.65;;
21810;SDS011;11067;48.788;9.208;2023-05-07T09:19:54;4.33;;;2.70;;
21810;SDS011;11067;48.788;9.208;2023-05-07T09:22:20;4.63;;;2.80;;
21810;SDS011;11067;48.788;9.208;2023-05-07T09:24:49;2.58;;;2.33;;
21810;SDS011;11067;48.788;9.208;2023-05-07T09:27:16;2.90;;;2.57;;
21810;SDS011;11067;48.788;9.208;2023-05-07T09:29:43;4.17;;;2.63;;
21810;SDS011;11067;48.788;9.208;2023-05-07T09:32:09;2.53;;;2.30;;
21810;SDS011;11067;48.788;9.208;2023-05-07T09:34:35;2.97;;;2.22;;
21810;SDS011;11067;48.788;9.208;2023-05-07T09:37:02;2.93;;;2.00;;
21810;SDS011;11067;48.788;9.208;2023-05-07T09:39:41;2.63;;;2.00;;
21810;SDS011;11067;48.788;9.208;2023-05-07T09:42:07;3.78;;;2.28;;
21810;SDS011;11067;48.788;9.208;2023-05-07T09:44:34;2.67;;;2.40;;
21810;SDS011;11067;48.788;9.208;2023-05-07T09:46:59;4.32;;;2.30;;
21810;SDS011;11067;48.788;9.208;2023-05-07T09:49:26;2.55;;;2.00;;
21810;SDS011;11067;48.788;9.208;2023-05-07T09:51:55;3.08;;;2.25;;
21810;SDS011;11067;48.788;9.208;2023-05-07T09:54:24;4.57;;;2.30;;
21810;SDS011;11067;48.788;9.208;2023-05-07T09:56:51;2.80;;;2.38;;
21810;SDS011;11067;48.788;9.208;2023-05-07T09:59:17;2.38;;;2.17;;
21810;SDS011;11067;48.788;9.208;2023-05-07T10:01:45;2.80;;;2.08;;
21810;SDS011;11067;48.788;9.208;2023-05-07T10:04:10;4.10;;;2.30;;
21810;SDS011;11067;48.788;9.208;2023-05-07T10:06:37;2.00;;;1.80;;
21810;SDS011;11067;48.788;9.208;2023-05-07T10:09:03;3.33;;;2.20;;
21810;SDS011;11067;48.788;9.208;2023-05-07T10:11:33;2.30;;;2.10;;
21810;SDS011;11067;48.788;9.208;2023-05-07T10:14:00;3.90;;;2.47;;
21810;SDS011;11067;48.788;9.208;2023-05-07T10:16:27;2.80;;;2.10;;
21810;SDS011;11067;48.788;9.208;2023-05-07T10:18:56;2.45;;;1.98;;
21810;SDS011;11067;48.788;9.208;2023-05-07T10:21:23;3.13;;;2.13;;
21810;SDS011;11067;48.788;9.208;2023-05-07T10:23:49;2.60;;;2.00;;
21810;SDS011;11067;48.788;9.208;2023-05-07T10:26:20;2.40;;;2.00;;
21810;SDS011;11067;48.788;9.208;2023-05-07T10:28:51;1.92;;;1.80;;
21810;SDS011;11067;48.788;9.208;2023-05-07T10:31:36;3.33;;;2.00;;
21810;SDS011;11067;48.788;9.208;2023-05-07T10:34:14;4.00;;;2.30;;
21810;SDS011;11067;48.788;9.208;2023-05-07T10:36:45;3.17;;;2.20;;
21810;SDS011;11067;48.788;9.208;2023-05-07T10:39:11;2.15;;;1.95;;
21810;SDS011;11067;48.788;9.208;2023-05-07T10:41:37;4.50;;;2.03;;
21810;SDS011;11067;48.788;9.208;2023-05-07T10:44:03;3.55;;;2.08;;
21810;SDS011;11067;48.788;9.208;2023-05-07T10:46:29;3.67;;;2.00;;
21810;SDS011;11067;48.788;9.208;2023-05-07T10:51:33;3.10;;;2.15;;
21810;SDS011;11067;48.788;9.208;2023-05-07T10:56:38;2.20;;;2.00;;
21810;SDS011;11067;48.788;9.208;2023-05-07T11:02:06;2.45;;;2.20;;
21810;SDS011;11067;48.788;9.208;2023-05-07T11:04:34;4.00;;;1.88;;
21810;SDS011;11067;48.788;9.208;2023-05-07T11:15:04;5.15;;;2.40;;
21810;SDS011;11067;48.788;9.208;2023-05-07T11:17:34;2.60;;;1.75;;
21810;SDS011;11067;48.788;9.208;2023-05-07T11:20:16;4.43;;;2.10;;
21810;SDS011;11067;48.788;9.208;2023-05-07T11:22:42;2.97;;;1.90;;
21810;SDS011;11067;48.788;9.208;2023-05-07T11:25:07;2.60;;;1.97;;
21810;SDS011;11067;48.788;9.208;2023-05-07T11:27:33;2.60;;;2.10;;
21810;SDS011;11067;48.788;9.208;2023-05-07T11:29:59;2.28;;;2.08;;
21810;SDS011;11067;48.788;9.208;2023-05-07T11:32:26;2.73;;;2.33;;
21810;SDS011;11067;48.788;9.208;2023-05-07T11:34:54;4.63;;;2.05;;
21810;SDS011;11067;48.788;9.208;2023-05-07T11:37:21;2.90;;;2.10;;
21810;SDS011;11067;48.788;9.208;2023-05-07T11:39:47;5.07;;;2.20;;
21810;SDS011;11067;48.788;9.208;2023-05-07T11:42:29;2.10;;;1.90;;
21810;SDS011;11067;48.788;9.208;2023-05-07T11:44:56;3.03;;;2.10;;
21810;SDS011;11067;48.788;9.208;2023-05-07T11:47:22;2.13;;;1.92;;
21810;SDS011;11067;48.788;9.208;2023-05-07T11:49:49;2.30;;;2.10;;
21810;SDS011;11067;48.788;9.208;2023-05-07T11:52:16;4.15;;;2.53;;
21810;SDS011;11067;48.788;9.208;2023-05-07T11:54:48;3.25;;;1.92;;
21810;SDS011;11067;48.788;9.208;2023-05-07T11:57:17;1.95;;;1.73;;
21810;SDS011;11067;48.788;9.208;2023-05-07T11:59:43;3.53;;;2.10;;
21810;SDS011;11067;48.788;9.208;2023-05-07T12:02:09;2.43;;;2.00;;
21810;SDS011;11067;48.788;9.208;2023-05-07T12:04:35;4.20;;;2.20;;
21810;SDS011;11067;48.788;9.208;2023-05-07T12:07:02;2.10;;;1.90;;
21810;SDS011;11067;48.788;9.208;2023-05-07T12:09:28;3.00;;;2.00;;
21810;SDS011;11067;48.788;9.208;2023-05-07T12:11:54;2.70;;;1.70;;
21810;SDS011;11067;48.788;9.208;2023-05-07T12:14:21;6.77;;;2.13;;
21810;SDS011;11067;48.788;9.208;2023-05-07T12:16:46;2.33;;;2.13;;
21810;SDS011;11067;48.788;9.208;2023-05-07T12:19:13;4.70;;;2.00;;
21810;SDS011;11067;48.788;9.208;2023-05-07T12:21:39;4.07;;;2.30;;
21810;SDS011;11067;48.788;9.208;2023-05-07T12:24:05;5.65;;;2.67;;
21810;SDS011;11067;48.788;9.208;2023-05-07T12:26:31;4.53;;;2.80;;
21810;SDS011;11067;48.788;9.208;2023-05-07T12:28:57;6.75;;;2.80;;
21810;SDS011;11067;48.788;9.208;2023-05-07T12:31:25;9.13;;;4.30;;
21810;SDS011;11067;48.788;9.208;2023-05-07T12:33:51;6.65;;;3.83;;
21810;SDS011;11067;48.788;9.208;2023-05-07T12:36:16;5.57;;;3.90;;
21810;SDS011;11067;48.788;9.208;2023-05-07T12:38:42;7.80;;;3.57;;
21810;SDS011;11067;48.788;9.208;2023-05-07T12:41:08;3.17;;;2.88;;
21810;SDS011;11067;48.788;9.208;2023-05-07T12:43:35;3.50;;;2.80;;
21810;SDS011;11067;48.788;9.208;2023-05-07T12:46:01;4.72;;;2.60;;
21810;SDS011;11067;48.788;9.208;2023-05-07T12:48:29;8.07;;;3.73;;
21810;SDS011;11067;48.788;9.208;2023-05-07T12:50:55;3.75;;;3.35;;
21810;SDS011;11067;48.788;9.208;2023-05-07T12:53:22;4.75;;;3.13;;
21810;SDS011;11067;48.788;9.208;2023-05-07T12:55:52;5.57;;;3.22;;
21810;SDS011;11067;48.788;9.208;2023-05-07T12:58:20;8.43;;;2.67;;
21810;SDS011;11067;48.788;9.208;2023-05-07T13:00:53;5.40;;;3.00;;
21810;SDS011;11067;48.788;9.208;2023-05-07T13:03:32;4.20;;;2.10;;
21810;SDS011;11067;48.788;9.208;2023-05-07T13:06:01;2.28;;;1.58;;
21810;SDS011;11067;48.788;9.208;2023-05-07T13:08:31;1.92;;;1.00;;
21810;SDS011;11067;48.788;9.208;2023-05-07T13:11:02;4.03;;;1.77;;
21810;SDS011;11067;48.788;9.208;2023-05-07T13:13:32;2.47;;;1.40;;
21810;SDS011;11067;48.788;9.208;2023-05-07T13:15:59;4.65;;;1.80;;
21810;SDS011;11067;48.788;9.208;2023-05-07T13:18:25;4.15;;;1.83;;
21810;SDS011;11067;48.788;9.208;2023-05-07T13:20:51;4.75;;;2.10;;
21810;SDS011;11067;48.788;9.208;2023-05-07T13:23:17;6.37;;;2.10;;
21810;SDS011;11067;48.788;9.208;2023-05-07T13:25:43;13.73;;;2.83;;
21810;SDS011;11067;48.788;9.208;2023-05-07T13:28:09;6.05;;;2.10;;
21810;SDS011;11067;48.788;9.208;2023-05-07T13:30:34;2.78;;;1.92;;
21810;SDS011;11067;48.788;9.208;2023-05-07T13:33:00;3.22;;;1.95;;
21810;SDS011;11067;48.788;9.208;2023-05-07T13:35:26;2.70;;;1.80;;
21810;SDS011;11067;48.788;9.208;2023-05-07T13:37:51;5.03;;;2.17;;
21810;SDS011;11067;48.788;9.208;2023-05-07T13:40:18;6.72;;;2.15;;
21810;SDS011;11067;48.788;9.208;2023-05-07T13:42:44;4.13;;;2.25;;
21810;SDS011;11067;48.788;9.208;2023-05-07T13:45:10;5.00;;;1.60;;
21810;SDS011;11067;48.788;9.208;2023-05-07T13:47:35;3.70;;;2.00;;
21810;SDS011;11067;48.788;9.208;2023-05-07T13:50:01;7.88;;;2.17;;
21810;SDS011;11067;48.788;9.208;2023-05-07T13:52:26;6.93;;;2.90;;
21810;SDS011;11067;48.788;9.208;2023-05-07T13:54:52;5.97;;;2.50;;
21810;SDS011;11067;48.788;9.208;2023-05-07T13:57:18;4.07;;;2.05;;
21810;SDS011;11067;48.788;9.208;2023-05-07T13:59:43;6.20;;;1.23;;
21810;SDS011;11067;48.788;9.208;2023-05-07T14:02:09;5.60;;;1.90;;
21810;SDS011;11067;48.788;9.208;2023-05-07T14:04:35;2.88;;;1.88;;
21810;SDS011;11067;48.788;9.208;2023-05-07T14:07:02;4.20;;;1.95;;
21810;SDS011;11067;48.788;9.208;2023-05-07T14:09:28;3.27;;;1.90;;
21810;SDS011;11067;48.788;9.208;2023-05-07T14:11:53;3.75;;;1.67;;
21810;SDS011;11067;48.788;9.208;2023-05-07T14:14:19;1.83;;;1.60;;
21810;SDS011;11067;48.788;9.208;2023-05-07T14:16:44;2.23;;;1.50;;
21810;SDS011;11067;48.788;9.208;2023-05-07T14:19:13;3.65;;;1.70;;
21810;SDS011;11067;48.788;9.208;2023-05-07T14:21:39;3.60;;;2.00;;
21810;SDS011;11067;48.788;9.208;2023-05-07T14:24:06;3.13;;;1.80;;
21810;SDS011;11067;48.788;9.208;2023-05-07T14:26:33;2.70;;;1.67;;
21810;SDS011;11067;48.788;9.208;2023-05-07T14:28:59;3.60;;;1.93;;
21810;SDS011;11067;48.788;9.208;2023-05-07T14:31:25;2.20;;;1.73;;
21810;SDS011;11067;48.788;9.208;2023-05-07T14:33:51;3.97;;;1.67;;
21810;SDS011;11067;48.788;9.208;2023-05-07T14:36:17;2.00;;;1.50;;
21810;SDS011;11067;48.788;9.208;2023-05-07T14:38:44;1.63;;;1.48;;
21810;SDS011;11067;48.788;9.208;2023-05-07T14:41:11;2.58;;;1.52;;
21810;SDS011;11067;48.788;9.208;2023-05-07T14:43:36;2.38;;;1.60;;
21810;SDS011;11067;48.788;9.208;2023-05-07T14:46:02;2.13;;;1.57;;
21810;SDS011;11067;48.788;9.208;2023-05-07T14:48:27;2.00;;;1.60;;
21810;SDS011;11067;48.788;9.208;2023-05-07T14:50:53;3.30;;;2.20;;
21810;SDS011;11067;48.788;9.208;2023-05-07T14:53:18;4.67;;;2.40;;
21810;SDS011;11067;48.788;9.208;2023-05-07T14:55:44;4.57;;;2.50;;
21810;SDS011;11067;48.788;9.208;2023-05-07T14:58:10;5.43;;;3.10;;